• Join FlightAware (Why Join?)
  • Login
  • US Flag 
08:46PM EDT


 

Airport Tracker/Info


-or-


 

Live Flight TrackerFlight Track Log ✈ N137TK ✈ 14-Oct-2013 ✈ KAPF - KLCQ

Flight Track Log - Related Links

Times and Time Zones

All times are in EDT time to prevent confusion due to time zone crossing. See the N137TK flight status page for this flight to view local times or setup timezone preferences in your user account.

Time Position Orientation Groundspeed Altitude Reporting Facility
EDT Latitude Longitude Course Direction KTS MPH feet Rate Location/Type
10:11AM 26.2150 -81.8328 354° North 157 181 3,600  Level Miami Center
10:12AM 26.2628 -81.8372 355° North 170 196 5,600 1,980 Climbing Miami Center
10:13AM 26.3064 -81.8436 353° North 170 196 7,600 1,860 Climbing Miami Center
10:14AM 26.3567 -81.8456 358° North 176 203 9,400 1,320 Climbing Miami Center
10:15AM 26.4106 -81.8525 353° North 201 231 10,300 1,500 Climbing Miami Center
10:16AM 26.5095 -81.8442 354° North  Level Estimated
10:16AM 26.4625 -81.8594 353° North 201 231 12,500  Level Miami Center
10:17AM 26.5167 -81.8664 353° North 196 226 14,100 1,440 Climbing Miami Center
10:18AM 26.5708 -81.8686 358° North 196 226 15,400 1,440 Climbing Miami Center
10:19AM 26.6228 -81.8756 353° North 196 226 17,000 1,500 Climbing Miami Center
10:20AM 26.6706 -81.8822 353° North 190 219 18,500 1,380 Climbing Miami Center
10:21AM 26.7164 -81.8842 358° North 175 201 19,800 1,140 Climbing Miami Center
10:22AM 26.7622 -81.8883 355° North 170 196 20,800 1,020 Climbing Miami Center
10:23AM 26.8100 -81.8928 355° North 170 196 21,900 600 Climbing Miami Center
10:24AM 26.8661 -81.9000 353° North 177 204 22,000  Climbing Miami Center
10:25AM 26.9306 -81.9072 354° North 207 238 22,000  Level Miami Center
10:26AM 26.9972 -81.9125 356° North 233 268 22,000  Level Miami Center
10:27AM 27.0681 -81.9156 358° North 240 276 22,000  Level Miami Center
10:28AM 27.1283 -81.9231 354° North 240 276 22,000  Level Miami Center
10:29AM 27.1969 -81.9306 354° North 247 284 22,000  Level Miami Center
10:30AM 27.2717 -81.9386 355° North 242 278 22,000  Level Miami Center
10:31AM 27.3403 -81.9464 354° North 242 278 22,000  Level Miami Center
10:32AM 27.4047 -81.9539 354° North 237 273 22,000  Level Miami Center
10:33AM 27.4694 -81.9589 356° North 237 273 22,000  Level Miami Center
10:34AM 27.5442 -81.9669 355° North 237 273 22,000  Level Miami Center
10:35AM 27.6128 -81.9747 354° North 237 273 22,000  Level Miami Center
10:36AM 27.6792 -81.9825 354° North 237 273 22,000  Level Miami Center
10:37AM 27.7397 -81.9875 356° North 237 273 22,000  Level Miami Center
10:41AM 27.9842 -82.0136 355° North 236 272 22,000  Level Jacksonville Center
10:42AM 28.0511 -82.0272 350° North 243 280 22,000  Level Jacksonville Center
10:43AM 28.1158 -82.0383 351° North 243 280 22,000  Level Jacksonville Center
10:44AM 28.1847 -82.0494 352° North 237 273 22,000  Level Jacksonville Center
10:45AM 28.2453 -82.0725 341° North 237 273 22,000  Level Jacksonville Center
10:46AM 28.3000 -82.1100 329° Northwest 226 260 22,000  Level Jacksonville Center
10:47AM 28.3544 -82.1497 327° Northwest 226 260 22,000  Level Jacksonville Center
10:48AM 28.4089 -82.1844 331° Northwest 232 267 22,000  Level Jacksonville Center
10:49AM 28.4653 -82.2244 328° Northwest 232 267 22,000 -180 Level Jacksonville Center
10:50AM 28.5219 -82.2642 328° Northwest 232 267 21,700 -600 Descending Jacksonville Center
10:51AM 28.5806 -82.3039 329° Northwest 237 273 20,900 -840 Descending Jacksonville Center
10:52AM 28.6414 -82.3508 326° Northwest 247 284 20,100 -780 Descending Jacksonville Center
10:53AM 28.6917 -82.3931 324° Northwest 253 291 19,400 -780 Descending Jacksonville Center
10:54AM 28.7522 -82.4356 328° Northwest 253 291 18,600 -840 Descending Jacksonville Center
10:55AM 28.8253 -82.4422 355° North 253 291 17,800 -720 Descending Jacksonville Center
10:56AM 28.9006 -82.4492 355° North 253 291 17,200 -840 Descending Jacksonville Center
10:56AM 28.9297 -82.4536 352° North 270 311 16,800 -840 Descending Jacksonville Center
10:57AM 28.9756 -82.4558 358° North 264 304 16,400 -840 Descending Jacksonville Center
10:57AM 29.0444 -82.4650 353° North 283 326 15,600 -840 Descending Jacksonville Center
10:58AM 29.0569 -82.4625 10° North 276 318 15,600 -660 Level Jacksonville Center
10:59AM 29.1344 -82.4694 356° North 276 318 14,800 -900 Descending Jacksonville Center
10:59AM 29.1864 -82.4786 351° North 277 319 14,200 -840 Descending Jacksonville Center
11:00AM 29.2094 -82.4786 360° North 276 318 14,000 -840 Descending Jacksonville Center
11:00AM 29.2806 -82.4878 354° North 274 315 13,200 -840 Descending Jacksonville Center
11:01AM 29.2867 -82.4878 360° North 276 318 13,200 -720 Level Jacksonville Center
11:02AM 29.3619 -82.4922 357° North 302 348 12,400 -840 Descending Jacksonville Center
11:03AM 29.4372 -82.5014 354° North 294 338 11,600 -1,200 Descending Jacksonville Center
11:04AM 29.5144 -82.5083 356° North 281 323 10,100 -1,500 Descending Jacksonville Center
11:05AM 29.5936 -82.5175 354° North 274 315 8,600 -1,500 Descending Jacksonville Center
11:06AM 29.6689 -82.5244 355° North 274 315 7,200 -1,500 Descending Jacksonville Center
11:07AM 29.7442 -82.5339 354° North 274 315 5,700 -1,500 Descending Jacksonville Center
11:08AM 29.8233 -82.5406 356° North 274 315 4,200 -1,140 Descending Jacksonville Center
11:09AM 29.8839 -82.5619 343° North 249 287 3,500 -900 Descending Jacksonville Center
11:10AM 29.9383 -82.5978 330° Northwest 231 266 2,400 -780 Descending Jacksonville Center
11:11AM 29.9906 -82.6336 329° Northwest 221 254 2,000 -300 Descending Jacksonville Center
11:12AM 30.0367 -82.6358 358° North 195 224 1,800 -300 Descending Jacksonville Center
11:13AM 30.0931 -82.6333 North 185 213 1,500 -240 Descending Jacksonville Center
11:14AM 30.1389 -82.6258 North 167 192 1,400 -360 Descending Jacksonville Center
11:15AM 30.1786 -82.6161 12° North 155 178 800 -480 Descending Jacksonville Center
11:16AM 30.2097 -82.6042 18° North 141 162 500 1,560 Descending Jacksonville Center
11:17AM 30.2475 -82.5919 16° North 141 162 4,000 3,480 Climbing Jacksonville Center
11:19AM 30.1821 -82.5769 139° Southeast  Level Estimated
11:26AM 30.1821 -82.5769 139° Southeast  Level Estimated
11:27AM 30.1821 -82.5769 139° Southeast  Level Estimated
11:28AM 30.1821 -82.5769 139° Southeast  Level Estimated
11:29AM 30.1821 -82.5769 139° Southeast  Level Estimated
11:30AM 30.1821 -82.5769 139° Southeast  Level Estimated
11:31AM 30.1821 -82.5769 139° Southeast  Level Estimated
11:32AM 30.1821 -82.5769 139° Southeast  Level Estimated
11:33AM 30.1821 -82.5769 139° Southeast  Level Estimated